sensor_id;sensor_type;location;lat;lon;timestamp;P1;durP1;ratioP1;P2;durP2;ratioP2
15938;SDS011;8068;51.322;9.450;2023-07-13T00:00:26;4.80;;;1.40;;
15938;SDS011;8068;51.322;9.450;2023-07-13T00:02:52;3.10;;;1.60;;
15938;SDS011;8068;51.322;9.450;2023-07-13T00:05:22;2.53;;;1.30;;
15938;SDS011;8068;51.322;9.450;2023-07-13T00:07:49;3.10;;;1.60;;
15938;SDS011;8068;51.322;9.450;2023-07-13T00:10:16;3.20;;;1.50;;
15938;SDS011;8068;51.322;9.450;2023-07-13T00:12:43;2.87;;;1.30;;
15938;SDS011;8068;51.322;9.450;2023-07-13T00:15:14;3.00;;;1.40;;
15938;SDS011;8068;51.322;9.450;2023-07-13T00:17:42;1.60;;;1.23;;
15938;SDS011;8068;51.322;9.450;2023-07-13T00:20:10;3.33;;;1.30;;
15938;SDS011;8068;51.322;9.450;2023-07-13T00:22:37;3.53;;;1.47;;
15938;SDS011;8068;51.322;9.450;2023-07-13T00:25:03;1.73;;;1.23;;
15938;SDS011;8068;51.322;9.450;2023-07-13T00:27:30;3.63;;;1.90;;
15938;SDS011;8068;51.322;9.450;2023-07-13T00:29:57;5.13;;;2.07;;
15938;SDS011;8068;51.322;9.450;2023-07-13T00:32:24;4.10;;;1.70;;
15938;SDS011;8068;51.322;9.450;2023-07-13T00:34:53;3.40;;;1.80;;
15938;SDS011;8068;51.322;9.450;2023-07-13T00:37:19;2.90;;;1.77;;
15938;SDS011;8068;51.322;9.450;2023-07-13T00:39:46;2.57;;;2.17;;
15938;SDS011;8068;51.322;9.450;2023-07-13T00:42:12;3.87;;;1.57;;
15938;SDS011;8068;51.322;9.450;2023-07-13T00:44:38;4.23;;;2.03;;
15938;SDS011;8068;51.322;9.450;2023-07-13T00:47:06;4.63;;;1.67;;
15938;SDS011;8068;51.322;9.450;2023-07-13T00:49:32;3.53;;;1.87;;
15938;SDS011;8068;51.322;9.450;2023-07-13T00:52:02;3.97;;;1.60;;
15938;SDS011;8068;51.322;9.450;2023-07-13T00:54:35;3.30;;;1.87;;
15938;SDS011;8068;51.322;9.450;2023-07-13T00:57:04;2.80;;;1.53;;
15938;SDS011;8068;51.322;9.450;2023-07-13T00:59:34;3.10;;;1.73;;
15938;SDS011;8068;51.322;9.450;2023-07-13T01:02:02;2.70;;;1.50;;
15938;SDS011;8068;51.322;9.450;2023-07-13T01:07:21;2.13;;;1.50;;
15938;SDS011;8068;51.322;9.450;2023-07-13T01:09:47;3.97;;;1.60;;
15938;SDS011;8068;51.322;9.450;2023-07-13T01:12:13;3.70;;;1.47;;
15938;SDS011;8068;51.322;9.450;2023-07-13T01:14:40;4.10;;;1.70;;
15938;SDS011;8068;51.322;9.450;2023-07-13T01:17:09;3.87;;;2.00;;
15938;SDS011;8068;51.322;9.450;2023-07-13T01:19:37;6.97;;;2.70;;
15938;SDS011;8068;51.322;9.450;2023-07-13T01:22:14;1.90;;;1.70;;
15938;SDS011;8068;51.322;9.450;2023-07-13T01:24:43;2.37;;;1.63;;
15938;SDS011;8068;51.322;9.450;2023-07-13T01:27:11;4.63;;;1.53;;
15938;SDS011;8068;51.322;9.450;2023-07-13T01:29:40;5.93;;;1.87;;
15938;SDS011;8068;51.322;9.450;2023-07-13T01:32:08;3.10;;;1.63;;
15938;SDS011;8068;51.322;9.450;2023-07-13T01:34:36;2.27;;;1.70;;
15938;SDS011;8068;51.322;9.450;2023-07-13T01:37:03;4.00;;;1.77;;
15938;SDS011;8068;51.322;9.450;2023-07-13T01:39:30;2.57;;;1.73;;
15938;SDS011;8068;51.322;9.450;2023-07-13T01:41:57;7.33;;;2.37;;
15938;SDS011;8068;51.322;9.450;2023-07-13T01:44:23;3.20;;;1.40;;
15938;SDS011;8068;51.322;9.450;2023-07-13T01:46:50;2.70;;;1.50;;
15938;SDS011;8068;51.322;9.450;2023-07-13T01:49:16;5.77;;;1.60;;
15938;SDS011;8068;51.322;9.450;2023-07-13T01:51:42;3.70;;;1.60;;
15938;SDS011;8068;51.322;9.450;2023-07-13T01:54:08;4.43;;;1.43;;
15938;SDS011;8068;51.322;9.450;2023-07-13T01:56:35;2.20;;;1.40;;
15938;SDS011;8068;51.322;9.450;2023-07-13T01:59:01;3.53;;;1.43;;
15938;SDS011;8068;51.322;9.450;2023-07-13T02:01:27;3.33;;;1.50;;
15938;SDS011;8068;51.322;9.450;2023-07-13T02:03:53;2.13;;;1.60;;
15938;SDS011;8068;51.322;9.450;2023-07-13T02:06:20;1.90;;;1.70;;
15938;SDS011;8068;51.322;9.450;2023-07-13T02:08:46;2.80;;;1.73;;
15938;SDS011;8068;51.322;9.450;2023-07-13T02:11:12;2.37;;;2.00;;
15938;SDS011;8068;51.322;9.450;2023-07-13T02:13:38;4.70;;;2.20;;
15938;SDS011;8068;51.322;9.450;2023-07-13T02:16:05;2.20;;;1.83;;
15938;SDS011;8068;51.322;9.450;2023-07-13T02:18:32;5.57;;;1.80;;
15938;SDS011;8068;51.322;9.450;2023-07-13T02:20:58;4.13;;;1.70;;
15938;SDS011;8068;51.322;9.450;2023-07-13T02:23:24;7.23;;;2.07;;
15938;SDS011;8068;51.322;9.450;2023-07-13T02:25:55;2.57;;;1.77;;
15938;SDS011;8068;51.322;9.450;2023-07-13T02:28:22;2.77;;;1.43;;
15938;SDS011;8068;51.322;9.450;2023-07-13T02:30:48;7.33;;;1.80;;
15938;SDS011;8068;51.322;9.450;2023-07-13T02:33:14;2.97;;;1.70;;
15938;SDS011;8068;51.322;9.450;2023-07-13T02:35:41;2.90;;;1.77;;
15938;SDS011;8068;51.322;9.450;2023-07-13T02:38:07;6.03;;;2.17;;
15938;SDS011;8068;51.322;9.450;2023-07-13T02:40:34;6.17;;;2.07;;
15938;SDS011;8068;51.322;9.450;2023-07-13T02:43:01;5.10;;;1.90;;
15938;SDS011;8068;51.322;9.450;2023-07-13T02:45:28;4.80;;;2.00;;
15938;SDS011;8068;51.322;9.450;2023-07-13T02:47:54;4.20;;;2.00;;
15938;SDS011;8068;51.322;9.450;2023-07-13T02:50:21;4.47;;;2.43;;
15938;SDS011;8068;51.322;9.450;2023-07-13T02:52:47;3.47;;;2.00;;
15938;SDS011;8068;51.322;9.450;2023-07-13T02:55:13;3.60;;;1.97;;
15938;SDS011;8068;51.322;9.450;2023-07-13T02:57:39;2.70;;;1.80;;
15938;SDS011;8068;51.322;9.450;2023-07-13T03:00:06;3.37;;;1.53;;
15938;SDS011;8068;51.322;9.450;2023-07-13T03:02:33;4.90;;;1.97;;
15938;SDS011;8068;51.322;9.450;2023-07-13T03:05:00;6.60;;;2.10;;
15938;SDS011;8068;51.322;9.450;2023-07-13T03:07:27;5.37;;;2.00;;
15938;SDS011;8068;51.322;9.450;2023-07-13T03:09:54;8.07;;;2.00;;
15938;SDS011;8068;51.322;9.450;2023-07-13T03:12:22;2.70;;;1.70;;
15938;SDS011;8068;51.322;9.450;2023-07-13T03:14:48;3.97;;;1.80;;
15938;SDS011;8068;51.322;9.450;2023-07-13T03:17:14;2.10;;;1.87;;
15938;SDS011;8068;51.322;9.450;2023-07-13T03:19:41;5.33;;;1.47;;
15938;SDS011;8068;51.322;9.450;2023-07-13T03:22:07;3.63;;;1.27;;
15938;SDS011;8068;51.322;9.450;2023-07-13T03:24:34;3.90;;;1.37;;
15938;SDS011;8068;51.322;9.450;2023-07-13T03:27:04;5.60;;;1.83;;
15938;SDS011;8068;51.322;9.450;2023-07-13T03:29:31;3.13;;;1.60;;
15938;SDS011;8068;51.322;9.450;2023-07-13T03:31:57;3.97;;;1.40;;
15938;SDS011;8068;51.322;9.450;2023-07-13T03:34:23;5.17;;;1.30;;
15938;SDS011;8068;51.322;9.450;2023-07-13T03:36:50;3.30;;;1.57;;
15938;SDS011;8068;51.322;9.450;2023-07-13T03:39:16;8.50;;;1.87;;
15938;SDS011;8068;51.322;9.450;2023-07-13T03:41:42;4.83;;;1.57;;
15938;SDS011;8068;51.322;9.450;2023-07-13T03:44:08;4.33;;;1.63;;
15938;SDS011;8068;51.322;9.450;2023-07-13T03:46:34;12.23;;;2.80;;
15938;SDS011;8068;51.322;9.450;2023-07-13T03:49:01;3.97;;;2.30;;
15938;SDS011;8068;51.322;9.450;2023-07-13T03:51:32;1.70;;;1.30;;
15938;SDS011;8068;51.322;9.450;2023-07-13T03:53:58;2.97;;;1.40;;
15938;SDS011;8068;51.322;9.450;2023-07-13T03:56:24;4.00;;;1.53;;
15938;SDS011;8068;51.322;9.450;2023-07-13T03:58:50;3.50;;;1.57;;
15938;SDS011;8068;51.322;9.450;2023-07-13T04:01:17;3.47;;;1.90;;
15938;SDS011;8068;51.322;9.450;2023-07-13T04:03:46;3.20;;;1.90;;
15938;SDS011;8068;51.322;9.450;2023-07-13T04:06:20;4.10;;;1.70;;
15938;SDS011;8068;51.322;9.450;2023-07-13T04:08:52;5.70;;;2.27;;
15938;SDS011;8068;51.322;9.450;2023-07-13T04:11:21;6.27;;;2.37;;
15938;SDS011;8068;51.322;9.450;2023-07-13T04:13:48;2.30;;;2.10;;
15938;SDS011;8068;51.322;9.450;2023-07-13T04:16:15;2.60;;;2.30;;
15938;SDS011;8068;51.322;9.450;2023-07-13T04:18:42;3.97;;;2.40;;
15938;SDS011;8068;51.322;9.450;2023-07-13T04:21:09;5.77;;;2.20;;
15938;SDS011;8068;51.322;9.450;2023-07-13T04:23:36;6.50;;;2.80;;
15938;SDS011;8068;51.322;9.450;2023-07-13T04:26:02;3.80;;;2.03;;
15938;SDS011;8068;51.322;9.450;2023-07-13T04:28:29;3.20;;;2.33;;
15938;SDS011;8068;51.322;9.450;2023-07-13T04:30:56;10.30;;;2.50;;
15938;SDS011;8068;51.322;9.450;2023-07-13T04:33:22;5.10;;;2.10;;
15938;SDS011;8068;51.322;9.450;2023-07-13T04:35:50;4.50;;;2.40;;
15938;SDS011;8068;51.322;9.450;2023-07-13T04:38:27;4.70;;;2.60;;
15938;SDS011;8068;51.322;9.450;2023-07-13T04:40:58;4.00;;;2.30;;
15938;SDS011;8068;51.322;9.450;2023-07-13T04:43:26;4.17;;;2.40;;
15938;SDS011;8068;51.322;9.450;2023-07-13T04:45:53;5.20;;;2.47;;
15938;SDS011;8068;51.322;9.450;2023-07-13T04:48:19;5.37;;;2.43;;
15938;SDS011;8068;51.322;9.450;2023-07-13T04:50:46;3.53;;;2.57;;
15938;SDS011;8068;51.322;9.450;2023-07-13T04:53:13;3.93;;;1.83;;
15938;SDS011;8068;51.322;9.450;2023-07-13T04:55:39;3.50;;;1.90;;
15938;SDS011;8068;51.322;9.450;2023-07-13T04:58:06;3.80;;;1.83;;
15938;SDS011;8068;51.322;9.450;2023-07-13T05:00:32;2.70;;;1.60;;
15938;SDS011;8068;51.322;9.450;2023-07-13T05:02:59;3.80;;;1.70;;
15938;SDS011;8068;51.322;9.450;2023-07-13T05:05:26;4.53;;;1.73;;
15938;SDS011;8068;51.322;9.450;2023-07-13T05:07:53;9.03;;;2.60;;
15938;SDS011;8068;51.322;9.450;2023-07-13T05:10:20;3.67;;;1.97;;
15938;SDS011;8068;51.322;9.450;2023-07-13T05:12:46;3.17;;;2.37;;
15938;SDS011;8068;51.322;9.450;2023-07-13T05:15:12;3.20;;;2.43;;
15938;SDS011;8068;51.322;9.450;2023-07-13T05:17:38;6.37;;;2.77;;
15938;SDS011;8068;51.322;9.450;2023-07-13T05:20:07;6.27;;;2.40;;
15938;SDS011;8068;51.322;9.450;2023-07-13T05:22:34;10.33;;;2.60;;
15938;SDS011;8068;51.322;9.450;2023-07-13T05:25:01;4.70;;;2.50;;
15938;SDS011;8068;51.322;9.450;2023-07-13T05:27:30;6.23;;;2.53;;
15938;SDS011;8068;51.322;9.450;2023-07-13T05:29:56;2.80;;;2.17;;
15938;SDS011;8068;51.322;9.450;2023-07-13T05:32:22;2.83;;;2.40;;
15938;SDS011;8068;51.322;9.450;2023-07-13T05:34:49;11.07;;;2.50;;
15938;SDS011;8068;51.322;9.450;2023-07-13T05:37:15;13.00;;;2.80;;
15938;SDS011;8068;51.322;9.450;2023-07-13T05:39:41;4.80;;;2.10;;
15938;SDS011;8068;51.322;9.450;2023-07-13T05:42:07;3.30;;;1.87;;
15938;SDS011;8068;51.322;9.450;2023-07-13T05:44:34;4.80;;;2.20;;
15938;SDS011;8068;51.322;9.450;2023-07-13T05:47:00;2.43;;;1.80;;
15938;SDS011;8068;51.322;9.450;2023-07-13T05:49:26;2.53;;;2.10;;
15938;SDS011;8068;51.322;9.450;2023-07-13T05:51:52;3.30;;;2.00;;
15938;SDS011;8068;51.322;9.450;2023-07-13T05:54:19;10.00;;;2.20;;
15938;SDS011;8068;51.322;9.450;2023-07-13T05:56:48;6.93;;;2.00;;
15938;SDS011;8068;51.322;9.450;2023-07-13T05:59:25;2.73;;;1.50;;
15938;SDS011;8068;51.322;9.450;2023-07-13T06:01:52;8.13;;;2.17;;
15938;SDS011;8068;51.322;9.450;2023-07-13T06:04:28;3.10;;;1.53;;
15938;SDS011;8068;51.322;9.450;2023-07-13T06:11:18;3.80;;;1.50;;
15938;SDS011;8068;51.322;9.450;2023-07-13T06:14:10;6.00;;;1.80;;
15938;SDS011;8068;51.322;9.450;2023-07-13T06:17:40;3.40;;;1.67;;
15938;SDS011;8068;51.322;9.450;2023-07-13T06:24:29;4.73;;;1.20;;
15938;SDS011;8068;51.322;9.450;2023-07-13T06:31:29;2.00;;;1.00;;
15938;SDS011;8068;51.322;9.450;2023-07-13T06:33:55;5.97;;;1.47;;
15938;SDS011;8068;51.322;9.450;2023-07-13T06:36:21;3.30;;;0.83;;
15938;SDS011;8068;51.322;9.450;2023-07-13T06:38:48;3.47;;;1.10;;
15938;SDS011;8068;51.322;9.450;2023-07-13T06:41:14;2.33;;;1.00;;
15938;SDS011;8068;51.322;9.450;2023-07-13T06:43:41;6.00;;;1.63;;
15938;SDS011;8068;51.322;9.450;2023-07-13T06:46:07;5.77;;;1.30;;
15938;SDS011;8068;51.322;9.450;2023-07-13T06:48:34;2.70;;;1.00;;
15938;SDS011;8068;51.322;9.450;2023-07-13T06:51:01;1.70;;;0.87;;
15938;SDS011;8068;51.322;9.450;2023-07-13T06:53:28;8.30;;;1.20;;
15938;SDS011;8068;51.322;9.450;2023-07-13T06:55:57;3.53;;;0.97;;
15938;SDS011;8068;51.322;9.450;2023-07-13T06:58:23;2.67;;;1.00;;
15938;SDS011;8068;51.322;9.450;2023-07-13T07:00:50;3.20;;;1.00;;
15938;SDS011;8068;51.322;9.450;2023-07-13T07:03:17;3.53;;;0.90;;
15938;SDS011;8068;51.322;9.450;2023-07-13T07:05:44;4.97;;;1.10;;
15938;SDS011;8068;51.322;9.450;2023-07-13T07:08:10;2.27;;;1.00;;
15938;SDS011;8068;51.322;9.450;2023-07-13T07:10:36;5.87;;;1.00;;
15938;SDS011;8068;51.322;9.450;2023-07-13T07:13:03;1.50;;;0.90;;
15938;SDS011;8068;51.322;9.450;2023-07-13T07:15:29;5.43;;;1.17;;
15938;SDS011;8068;51.322;9.450;2023-07-13T07:17:55;3.00;;;0.93;;
15938;SDS011;8068;51.322;9.450;2023-07-13T07:20:22;1.30;;;0.70;;
15938;SDS011;8068;51.322;9.450;2023-07-13T07:22:48;3.60;;;1.17;;
15938;SDS011;8068;51.322;9.450;2023-07-13T07:25:15;2.83;;;1.03;;
15938;SDS011;8068;51.322;9.450;2023-07-13T07:27:41;2.53;;;0.90;;
15938;SDS011;8068;51.322;9.450;2023-07-13T07:30:10;4.73;;;0.70;;
15938;SDS011;8068;51.322;9.450;2023-07-13T07:32:40;1.90;;;0.83;;
15938;SDS011;8068;51.322;9.450;2023-07-13T07:35:10;2.30;;;0.83;;
15938;SDS011;8068;51.322;9.450;2023-07-13T07:37:36;1.93;;;0.77;;
15938;SDS011;8068;51.322;9.450;2023-07-13T07:40:06;1.50;;;0.80;;
15938;SDS011;8068;51.322;9.450;2023-07-13T07:42:36;2.60;;;0.70;;
15938;SDS011;8068;51.322;9.450;2023-07-13T07:45:03;2.47;;;0.93;;
15938;SDS011;8068;51.322;9.450;2023-07-13T07:47:29;4.40;;;0.77;;
15938;SDS011;8068;51.322;9.450;2023-07-13T07:49:56;3.87;;;0.90;;
15938;SDS011;8068;51.322;9.450;2023-07-13T07:52:22;8.37;;;0.93;;
15938;SDS011;8068;51.322;9.450;2023-07-13T07:54:48;2.47;;;1.17;;
15938;SDS011;8068;51.322;9.450;2023-07-13T07:57:17;1.67;;;1.10;;
15938;SDS011;8068;51.322;9.450;2023-07-13T08:00:03;3.57;;;0.80;;
15938;SDS011;8068;51.322;9.450;2023-07-13T08:02:33;1.80;;;0.90;;
15938;SDS011;8068;51.322;9.450;2023-07-13T08:05:02;3.70;;;1.20;;
15938;SDS011;8068;51.322;9.450;2023-07-13T08:07:32;1.60;;;1.07;;
15938;SDS011;8068;51.322;9.450;2023-07-13T08:09:58;4.13;;;0.93;;
15938;SDS011;8068;51.322;9.450;2023-07-13T08:12:24;4.93;;;1.00;;
15938;SDS011;8068;51.322;9.450;2023-07-13T08:14:53;3.87;;;0.93;;
15938;SDS011;8068;51.322;9.450;2023-07-13T08:17:23;2.37;;;0.80;;
15938;SDS011;8068;51.322;9.450;2023-07-13T08:19:50;1.23;;;0.70;;
15938;SDS011;8068;51.322;9.450;2023-07-13T08:22:16;1.70;;;0.53;;
15938;SDS011;8068;51.322;9.450;2023-07-13T08:24:42;2.17;;;0.70;;
15938;SDS011;8068;51.322;9.450;2023-07-13T08:27:10;4.03;;;1.20;;
15938;SDS011;8068;51.322;9.450;2023-07-13T08:29:37;2.33;;;0.93;;
15938;SDS011;8068;51.322;9.450;2023-07-13T08:32:04;1.30;;;0.60;;
15938;SDS011;8068;51.322;9.450;2023-07-13T08:34:32;1.70;;;0.70;;
15938;SDS011;8068;51.322;9.450;2023-07-13T08:36:58;2.07;;;1.13;;
15938;SDS011;8068;51.322;9.450;2023-07-13T08:39:24;1.40;;;0.70;;
15938;SDS011;8068;51.322;9.450;2023-07-13T08:41:52;1.80;;;0.70;;
15938;SDS011;8068;51.322;9.450;2023-07-13T08:44:26;1.43;;;0.67;;
15938;SDS011;8068;51.322;9.450;2023-07-13T08:46:56;1.40;;;0.80;;
15938;SDS011;8068;51.322;9.450;2023-07-13T08:49:25;4.20;;;0.70;;
15938;SDS011;8068;51.322;9.450;2023-07-13T08:52:00;2.33;;;0.70;;
15938;SDS011;8068;51.322;9.450;2023-07-13T08:54:35;2.17;;;0.90;;
15938;SDS011;8068;51.322;9.450;2023-07-13T08:57:13;3.87;;;0.73;;
15938;SDS011;8068;51.322;9.450;2023-07-13T08:59:40;1.90;;;0.87;;
15938;SDS011;8068;51.322;9.450;2023-07-13T09:04:37;1.63;;;0.70;;
15938;SDS011;8068;51.322;9.450;2023-07-13T09:07:45;1.60;;;0.60;;
15938;SDS011;8068;51.322;9.450;2023-07-13T09:13:00;1.73;;;0.70;;
15938;SDS011;8068;51.322;9.450;2023-07-13T09:15:35;1.33;;;0.80;;
15938;SDS011;8068;51.322;9.450;2023-07-13T09:18:18;2.83;;;0.80;;
15938;SDS011;8068;51.322;9.450;2023-07-13T09:20:49;1.90;;;0.97;;
15938;SDS011;8068;51.322;9.450;2023-07-13T09:23:23;1.23;;;0.80;;
15938;SDS011;8068;51.322;9.450;2023-07-13T09:25:54;1.87;;;0.70;;
15938;SDS011;8068;51.322;9.450;2023-07-13T09:28:27;1.20;;;0.67;;
15938;SDS011;8068;51.322;9.450;2023-07-13T09:33:55;3.57;;;0.90;;
15938;SDS011;8068;51.322;9.450;2023-07-13T09:36:23;1.73;;;0.87;;
15938;SDS011;8068;51.322;9.450;2023-07-13T09:39:25;2.10;;;0.80;;
15938;SDS011;8068;51.322;9.450;2023-07-13T09:41:51;2.40;;;0.80;;
15938;SDS011;8068;51.322;9.450;2023-07-13T09:44:31;2.23;;;1.03;;
15938;SDS011;8068;51.322;9.450;2023-07-13T09:47:01;3.77;;;0.90;;
15938;SDS011;8068;51.322;9.450;2023-07-13T09:49:34;2.07;;;0.80;;
15938;SDS011;8068;51.322;9.450;2023-07-13T09:52:04;1.40;;;0.90;;
15938;SDS011;8068;51.322;9.450;2023-07-13T09:54:33;2.07;;;0.90;;
15938;SDS011;8068;51.322;9.450;2023-07-13T09:57:01;5.50;;;0.80;;
15938;SDS011;8068;51.322;9.450;2023-07-13T09:59:29;3.60;;;0.80;;
15938;SDS011;8068;51.322;9.450;2023-07-13T10:01:57;2.73;;;0.73;;
15938;SDS011;8068;51.322;9.450;2023-07-13T10:04:30;1.93;;;0.70;;
15938;SDS011;8068;51.322;9.450;2023-07-13T10:07:05;1.70;;;0.80;;
15938;SDS011;8068;51.322;9.450;2023-07-13T10:09:53;4.03;;;0.93;;
15938;SDS011;8068;51.322;9.450;2023-07-13T10:12:20;3.53;;;0.80;;
15938;SDS011;8068;51.322;9.450;2023-07-13T10:14:52;2.40;;;0.80;;
15938;SDS011;8068;51.322;9.450;2023-07-13T10:17:34;4.10;;;0.80;;
15938;SDS011;8068;51.322;9.450;2023-07-13T10:20:02;2.70;;;0.93;;
15938;SDS011;8068;51.322;9.450;2023-07-13T10:22:35;1.33;;;0.83;;
15938;SDS011;8068;51.322;9.450;2023-07-13T10:25:13;2.03;;;0.80;;
15938;SDS011;8068;51.322;9.450;2023-07-13T10:27:42;1.40;;;0.80;;
15938;SDS011;8068;51.322;9.450;2023-07-13T10:30:11;6.43;;;0.87;;
15938;SDS011;8068;51.322;9.450;2023-07-13T10:32:43;2.23;;;0.80;;
15938;SDS011;8068;51.322;9.450;2023-07-13T10:35:11;1.30;;;0.70;;
15938;SDS011;8068;51.322;9.450;2023-07-13T10:38:21;1.60;;;0.80;;
15938;SDS011;8068;51.322;9.450;2023-07-13T10:40:34;1.30;;;0.80;;
15938;SDS011;8068;51.322;9.450;2023-07-13T10:43:39;3.87;;;0.80;;
15938;SDS011;8068;51.322;9.450;2023-07-13T10:46:08;2.60;;;0.70;;
15938;SDS011;8068;51.322;9.450;2023-07-13T10:48:36;1.10;;;0.60;;
15938;SDS011;8068;51.322;9.450;2023-07-13T10:51:03;1.93;;;0.87;;
15938;SDS011;8068;51.322;9.450;2023-07-13T10:53:36;3.30;;;0.90;;
15938;SDS011;8068;51.322;9.450;2023-07-13T10:56:04;1.93;;;1.07;;
15938;SDS011;8068;51.322;9.450;2023-07-13T10:58:41;3.33;;;1.13;;
15938;SDS011;8068;51.322;9.450;2023-07-13T11:19:44;2.57;;;0.60;;
15938;SDS011;8068;51.322;9.450;2023-07-13T11:24:29;2.90;;;0.80;;
15938;SDS011;8068;51.322;9.450;2023-07-13T11:26:56;3.20;;;0.83;;
15938;SDS011;8068;51.322;9.450;2023-07-13T11:31:59;1.10;;;0.60;;
15938;SDS011;8068;51.322;9.450;2023-07-13T11:34:28;1.50;;;0.70;;
15938;SDS011;8068;51.322;9.450;2023-07-13T11:36:57;2.37;;;0.70;;
15938;SDS011;8068;51.322;9.450;2023-07-13T11:39:26;4.20;;;0.77;;
15938;SDS011;8068;51.322;9.450;2023-07-13T11:42:02;1.83;;;0.90;;
15938;SDS011;8068;51.322;9.450;2023-07-13T11:44:32;1.23;;;0.73;;
15938;SDS011;8068;51.322;9.450;2023-07-13T11:47:01;1.33;;;0.77;;
15938;SDS011;8068;51.322;9.450;2023-07-13T11:49:48;1.30;;;0.80;;
15938;SDS011;8068;51.322;9.450;2023-07-13T11:52:17;2.63;;;0.77;;
15938;SDS011;8068;51.322;9.450;2023-07-13T11:54:47;2.40;;;0.73;;
15938;SDS011;8068;51.322;9.450;2023-07-13T11:57:26;2.70;;;0.70;;
15938;SDS011;8068;51.322;9.450;2023-07-13T11:59:54;2.17;;;0.77;;
15938;SDS011;8068;51.322;9.450;2023-07-13T12:02:26;3.57;;;0.97;;
15938;SDS011;8068;51.322;9.450;2023-07-13T12:04:55;1.50;;;0.60;;
15938;SDS011;8068;51.322;9.450;2023-07-13T12:07:22;3.00;;;0.73;;
15938;SDS011;8068;51.322;9.450;2023-07-13T12:09:48;2.50;;;0.80;;
15938;SDS011;8068;51.322;9.450;2023-07-13T12:12:17;3.60;;;0.67;;
15938;SDS011;8068;51.322;9.450;2023-07-13T12:14:44;1.10;;;0.50;;
15938;SDS011;8068;51.322;9.450;2023-07-13T12:17:13;2.13;;;0.80;;
15938;SDS011;8068;51.322;9.450;2023-07-13T12:19:50;1.43;;;0.80;;
15938;SDS011;8068;51.322;9.450;2023-07-13T12:22:18;1.20;;;0.50;;
15938;SDS011;8068;51.322;9.450;2023-07-13T12:24:46;1.80;;;0.60;;
15938;SDS011;8068;51.322;9.450;2023-07-13T12:27:18;1.57;;;0.53;;
15938;SDS011;8068;51.322;9.450;2023-07-13T12:30:01;3.77;;;0.73;;
15938;SDS011;8068;51.322;9.450;2023-07-13T12:32:31;1.37;;;0.70;;
15938;SDS011;8068;51.322;9.450;2023-07-13T12:35:14;1.30;;;0.90;;
15938;SDS011;8068;51.322;9.450;2023-07-13T12:37:43;2.30;;;0.97;;
15938;SDS011;8068;51.322;9.450;2023-07-13T12:40:13;1.63;;;1.23;;
15938;SDS011;8068;51.322;9.450;2023-07-13T12:42:42;1.50;;;1.17;;
15938;SDS011;8068;51.322;9.450;2023-07-13T12:45:14;3.00;;;0.90;;
15938;SDS011;8068;51.322;9.450;2023-07-13T12:47:48;1.97;;;1.37;;
15938;SDS011;8068;51.322;9.450;2023-07-13T12:50:19;4.30;;;1.17;;
15938;SDS011;8068;51.322;9.450;2023-07-13T12:52:51;3.57;;;1.30;;
15938;SDS011;8068;51.322;9.450;2023-07-13T12:55:19;1.40;;;1.17;;
15938;SDS011;8068;51.322;9.450;2023-07-13T12:57:51;1.40;;;1.03;;
15938;SDS011;8068;51.322;9.450;2023-07-13T13:00:25;3.80;;;1.00;;
15938;SDS011;8068;51.322;9.450;2023-07-13T13:02:54;3.40;;;0.80;;
15938;SDS011;8068;51.322;9.450;2023-07-13T13:05:41;3.40;;;0.80;;
15938;SDS011;8068;51.322;9.450;2023-07-13T13:08:10;1.93;;;0.90;;
15938;SDS011;8068;51.322;9.450;2023-07-13T13:10:37;2.70;;;0.90;;
15938;SDS011;8068;51.322;9.450;2023-07-13T13:13:03;3.30;;;0.90;;
15938;SDS011;8068;51.322;9.450;2023-07-13T13:15:30;2.13;;;0.90;;
15938;SDS011;8068;51.322;9.450;2023-07-13T13:17:56;1.20;;;0.70;;
15938;SDS011;8068;51.322;9.450;2023-07-13T13:20:24;1.37;;;0.77;;
15938;SDS011;8068;51.322;9.450;2023-07-13T13:22:52;3.00;;;0.87;;
15938;SDS011;8068;51.322;9.450;2023-07-13T13:25:18;4.10;;;0.80;;
15938;SDS011;8068;51.322;9.450;2023-07-13T13:27:45;1.73;;;0.73;;
15938;SDS011;8068;51.322;9.450;2023-07-13T13:30:12;3.40;;;0.90;;
15938;SDS011;8068;51.322;9.450;2023-07-13T13:32:40;3.97;;;1.23;;
15938;SDS011;8068;51.322;9.450;2023-07-13T13:35:18;2.63;;;0.80;;
15938;SDS011;8068;51.322;9.450;2023-07-13T13:37:45;2.20;;;0.80;;
15938;SDS011;8068;51.322;9.450;2023-07-13T13:40:17;1.83;;;0.80;;
15938;SDS011;8068;51.322;9.450;2023-07-13T13:42:45;1.73;;;0.80;;
15938;SDS011;8068;51.322;9.450;2023-07-13T13:45:11;1.73;;;0.77;;
15938;SDS011;8068;51.322;9.450;2023-07-13T13:47:43;1.30;;;0.70;;
15938;SDS011;8068;51.322;9.450;2023-07-13T13:52:41;1.57;;;0.90;;
15938;SDS011;8068;51.322;9.450;2023-07-13T13:57:41;1.50;;;0.80;;
15938;SDS011;8068;51.322;9.450;2023-07-13T14:00:10;1.50;;;0.80;;
15938;SDS011;8068;51.322;9.450;2023-07-13T14:02:40;2.03;;;0.93;;
15938;SDS011;8068;51.322;9.450;2023-07-13T14:05:12;6.53;;;0.87;;
15938;SDS011;8068;51.322;9.450;2023-07-13T14:07:38;1.87;;;0.80;;
15938;SDS011;8068;51.322;9.450;2023-07-13T14:10:10;2.37;;;0.90;;
15938;SDS011;8068;51.322;9.450;2023-07-13T14:12:38;2.63;;;0.80;;
15938;SDS011;8068;51.322;9.450;2023-07-13T14:15:05;2.83;;;1.00;;
15938;SDS011;8068;51.322;9.450;2023-07-13T14:17:32;3.77;;;1.03;;
15938;SDS011;8068;51.322;9.450;2023-07-13T14:20:01;1.60;;;0.83;;
15938;SDS011;8068;51.322;9.450;2023-07-13T14:22:30;1.70;;;1.50;;
15938;SDS011;8068;51.322;9.450;2023-07-13T14:24:56;7.10;;;5.43;;
15938;SDS011;8068;51.322;9.450;2023-07-13T14:27:24;4.20;;;1.00;;
15938;SDS011;8068;51.322;9.450;2023-07-13T14:29:51;1.40;;;0.87;;
15938;SDS011;8068;51.322;9.450;2023-07-13T14:32:17;3.97;;;1.10;;
15938;SDS011;8068;51.322;9.450;2023-07-13T14:34:43;2.00;;;1.03;;
15938;SDS011;8068;51.322;9.450;2023-07-13T14:37:13;1.30;;;0.80;;
15938;SDS011;8068;51.322;9.450;2023-07-13T14:39:44;2.80;;;1.20;;
15938;SDS011;8068;51.322;9.450;2023-07-13T14:42:12;4.03;;;1.10;;
15938;SDS011;8068;51.322;9.450;2023-07-13T14:44:38;4.73;;;1.80;;
15938;SDS011;8068;51.322;9.450;2023-07-13T14:47:05;2.50;;;1.20;;
15938;SDS011;8068;51.322;9.450;2023-07-13T14:49:37;2.23;;;0.80;;
15938;SDS011;8068;51.322;9.450;2023-07-13T14:52:12;1.57;;;1.07;;
15938;SDS011;8068;51.322;9.450;2023-07-13T14:54:40;2.70;;;0.90;;
15938;SDS011;8068;51.322;9.450;2023-07-13T14:57:10;10.17;;;1.33;;
15938;SDS011;8068;51.322;9.450;2023-07-13T14:59:37;1.30;;;0.80;;
15938;SDS011;8068;51.322;9.450;2023-07-13T15:02:12;1.83;;;1.00;;
15938;SDS011;8068;51.322;9.450;2023-07-13T15:04:39;1.30;;;0.67;;
15938;SDS011;8068;51.322;9.450;2023-07-13T15:07:07;1.87;;;0.80;;
15938;SDS011;8068;51.322;9.450;2023-07-13T15:09:36;1.60;;;1.10;;
15938;SDS011;8068;51.322;9.450;2023-07-13T15:12:02;3.60;;;1.07;;
15938;SDS011;8068;51.322;9.450;2023-07-13T15:14:28;1.50;;;1.00;;
15938;SDS011;8068;51.322;9.450;2023-07-13T15:16:58;1.53;;;0.73;;
15938;SDS011;8068;51.322;9.450;2023-07-13T15:19:24;3.10;;;0.97;;
15938;SDS011;8068;51.322;9.450;2023-07-13T15:21:51;2.53;;;0.80;;
15938;SDS011;8068;51.322;9.450;2023-07-13T15:24:18;2.17;;;0.73;;
15938;SDS011;8068;51.322;9.450;2023-07-13T15:26:44;2.80;;;0.80;;
15938;SDS011;8068;51.322;9.450;2023-07-13T15:29:12;1.87;;;1.60;;
15938;SDS011;8068;51.322;9.450;2023-07-13T15:31:44;6.83;;;3.30;;
15938;SDS011;8068;51.322;9.450;2023-07-13T15:34:18;4.03;;;2.43;;
15938;SDS011;8068;51.322;9.450;2023-07-13T15:36:57;3.00;;;2.60;;
15938;SDS011;8068;51.322;9.450;2023-07-13T15:39:28;1.70;;;1.00;;
15938;SDS011;8068;51.322;9.450;2023-07-13T15:42:02;1.30;;;0.60;;
15938;SDS011;8068;51.322;9.450;2023-07-13T15:44:38;2.37;;;0.90;;
15938;SDS011;8068;51.322;9.450;2023-07-13T15:47:13;2.37;;;0.80;;
15938;SDS011;8068;51.322;9.450;2023-07-13T15:49:46;2.70;;;0.87;;
15938;SDS011;8068;51.322;9.450;2023-07-13T15:52:24;1.60;;;0.70;;
15938;SDS011;8068;51.322;9.450;2023-07-13T15:54:56;1.23;;;0.70;;
15938;SDS011;8068;51.322;9.450;2023-07-13T15:57:29;1.87;;;0.87;;
15938;SDS011;8068;51.322;9.450;2023-07-13T16:00:12;15.40;;;1.30;;
15938;SDS011;8068;51.322;9.450;2023-07-13T16:02:46;2.03;;;1.20;;
15938;SDS011;8068;51.322;9.450;2023-07-13T16:05:19;1.60;;;0.87;;